Logo AVAMET
Benvolgut visitant, si us plau, ingressa Recuperar contrasenya
AVAMET paisatges

Burjassot À Punt

Dades diàries. Acumulats / Últims 30 dies disponibles

Data Temperatura (°C) Humitat rel. (%) Pressió rel. (hPa) Vent (km/h) Precipitació
Mínima Mitjana Màxima Amplitud
tèrmica
Mínima Mitjana Màxima Mínima Mitjana Màxima Predom. Mitjana Ràfega
màxima
Total
(mm)
Índex-n
Mínima Mitjana Màxima Mínima Mitjana Màxima n
0 a 1
P0 max
mm 5'
Dades mensuals acumulades fins l'últim dia disponible
10/2020 9,9 14,2 19,8 18,9 20,9 24,2 32,9 23,0 10 48 79 991 1.017 1.028   6,4 67,6 4,0
Dades anuals acumulades fins l'últim dia disponible
2020 2,2 15,5 25,9 19,6 9,4 24,2 34,9 32,7 9 57 93 991 1.018 1.035   5,7 86,9 268,6
Últims 30 dies disponibles
31-10-2020 12,4     16,8     22,6 10,2 44 65 76 1.022 1.024 1.026 SO 4,9 19,3 0,0
30-10-2020 11,8     16,7     23,4 11,6 38 61 76 1.024 1.026 1.027 WNW 4,5 19,3 0,0
29-10-2020 13,1     17,1     21,8 8,7 40 57 70 1.024 1.026 1.028 NW 4,2 19,3 0,0
28-10-2020 13,4     17,8     24,7 11,3 30 45 62 1.018 1.020 1.024 NW 4,2 19,3 0,0
27-10-2020 11,6     16,9     22,7 11,1 21 33 44 1.015 1.018 1.019 WNW 7,9 29,0 0,0
26-10-2020 12,8     17,8     21,4 8,6 20 35 50 1.010 1.014 1.019 NW 10,9 43,5 0,0
25-10-2020 14,4     19,6     23,8 9,4 29 41 55 1.010 1.016 1.020 W 8,7 40,2 0,0
24-10-2020 12,7     18,4     24,7 12,0 27 43 59 1.020 1.023 1.025 W 6,6 29,0 0,0
23-10-2020 15,6     19,2     24,2 8,6 24 51 79 1.017 1.020 1.024 WNW 7,7 40,2 0,2
22-10-2020 17,6     19,3     21,2 3,6 57 67 77 1.013 1.014 1.017 NW 2,1 16,1 1,6
21-10-2020 17,8     20,8     27,1 9,3 33 61 76 1.009 1.011 1.014 NW 4,2 32,2 0,0
20-10-2020 16,5     18,8     21,1 4,6 65 70 75 1.011 1.016 1.019 NNE 2,6 20,9 0,0
19-10-2020 14,1     17,8     21,6 7,5 49 62 69 1.019 1.021 1.022 NW 4,7 24,1 0,0
18-10-2020 12,3     16,8     22,3 10,0 35 54 70 1.019 1.021 1.022 SE 3,1 24,1 0,0
17-10-2020 11,8     16,2     21,7 9,9 28 48 57 1.016 1.017 1.019 NW 6,3 25,7 0,0
16-10-2020 9,9     15,3     20,9 11,0 17 37 54 1.016 1.017 1.019 NW 7,2 32,2 0,0
15-10-2020 11,8     17,0     22,4 10,6 16 32 59 1.013 1.015 1.017 NNW 10,9 38,6 0,0
14-10-2020 14,0     18,2     21,2 7,2 42 54 62 1.008 1.010 1.014 W 4,0 24,1 0,4
13-10-2020 14,3     20,4     28,8 14,5 20 38 58 1.010 1.014 1.019 W 6,4 32,2 0,0
12-10-2020 15,1     18,4     24,4 9,3 17 31 48 1.018 1.020 1.022 NW 8,2 40,2 0,0
11-10-2020 16,8     19,4     22,9 6,1 18 35 71 1.020 1.021 1.023 NW 9,8 33,8 0,0
10-10-2020 19,8     21,4     24,1 4,3 54 65 71 1.020 1.022 1.023 NW 3,7 20,9 0,0
09-10-2020 16,8     20,9     25,2 8,4 52 66 76 1.021 1.022 1.023 SE 4,8 24,1 0,0
08-10-2020 17,3     21,4     26,0 8,7 49 57 71 1.022 1.024 1.025 SE 5,6 30,6 0,0
07-10-2020 18,4     23,8     30,2 11,8 23 40 56 1.019 1.020 1.023 NW 7,6 30,6 0,0
06-10-2020 13,4     20,5     29,3 15,9 22 40 50 1.018 1.020 1.022 NW 6,0 27,4 0,0
05-10-2020 14,7     19,1     24,8 10,1 18 40 53 1.012 1.015 1.021 NW 7,4 40,2 0,0
04-10-2020 10,8     18,2     24,4 13,6 25 38 55 1.007 1.009 1.012 W 7,2 43,5 0,0
03-10-2020 11,4     17,5     23,8 12,4 21 35 56 1.001 1.005 1.010 WNW 9,2 43,5 0,0
02-10-2020 13,3     19,8     25,8 12,5 32 45 67 991 998 1.005 W 10,6 67,6 1,8
Últims 13 mesos disponibles
09/2020 13,8 19,4 22,6 23,7 24,0 28,4 32,5 18,7 27 51 67 1.011 1.017 1.023 SE 5,8 45,1 7,4
08/2020 17,8 23,1 25,9 27,0 26,4 31,1 34,9 17,1 35 55 65 1.004 1.014 1.019 SE 5,6 46,7 1,0
07/2020 19,6 22,6 24,9 26,4 27,2 30,2 34,6 15,0 37 58 66 1.011 1.016 1.020 SE 5,2 51,5 11,8
06/2020 15,3 19,1 22,3 23,3 21,8 28,0 32,8 17,5 26 55 73 1.005 1.014 1.021 SE 5,8 46,7 20,6
05/2020 12,6 16,7 19,3 21,1 19,9 25,8 34,1 21,5 37 54 68 1.005 1.017 1.027 SE 5,3 57,9 30,4
04/2020 8,5 12,6 18,3 16,1 15,4 20,2 26,8 18,3 36 65 84 1.006 1.016 1.026 SE 4,8 48,3 43,4
03/2020 5,8 10,5 15,6 14,1 11,9 18,1 25,3 19,5 33 62 88 1.007 1.017 1.027 NNE 6,9 85,3 48,0
02/2020 6,4 9,6 13,1 14,2 14,0 20,3 26,5 20,1 37 62 84 1.013 1.025 1.033 WNW 4,8 46,7 1,0
01/2020 2,2 6,8 13,4 10,7 9,4 15,6 22,4 20,2 47 66 85 1.017 1.025 1.033 WNW 6,4 86,9 101,0
12/2019 5,2 10,2 16,6 13,5 12,6 17,6 24,2 19,0 42 60 81 1.002 1.019 1.033 WNW 6,9 86,9 61,2
11/2019 5,1 11,7 20,6 15,5 16,0 19,9 29,0 23,9 33 47 70 998 1.010 1.018 WNW 9,3 66,0 4,2
10/2019 11,1 16,0 20,8 20,2 16,4 25,4 35,2 24,1 34 59 75 1.008 1.016 1.022 WNW 5,5 43,5 18,8
09/2019 15,4 20,1 23,3 23,8 21,1 27,7 35,1 19,7 36 63 74 1.010 1.018 1.025 SE 6,3 51,5 115,6
Tots els anys disponibles
2019 2,3 14,3 26,9 18,5 12,2 23,4 42,2 39,9 30 57 91 995 1.017 1.034 SE 6,7 86,9 331,2
Temperatura (°C)
Humitat relativa (%)
Velocitat del vent i ràfega màxima (km/h)
Direcció del vent (°)
Pressió (hPa)
Precipitació (mm)
Nota sobre les dades: s'avisa a l'usuari de la provisionalitat i no oficialitat d'aquestes dades
Logo AVAMET blanc
Web allotjada a Sollutia
Llicència de Creative CommonsLa web d'AVAMET i els seus continguts estan subjectes a una llicència de
Reconeixement - No Comercial - Compartir igual
Avís legal - Política de privacitat - Política de cookies
NOVES ESTACIONS: El Fondó dels Frares (Estació pròpia d'AVAMET nº34), Onda - Raval de St. Josep (Soci), Agres - Foia Ampla de Mariola (Socis), Beniarjó (Inforatge), Sueca - Mareny de Barraquetes (Inforatge), La Vilavella - Centre (Ajuntament Soci), Alfondeguilla (Soci), Santa Magdalena de Polpís (Soci), Benafigos (Ajuntament Soci) - - -